sensor_id;sensor_type;location;lat;lon;timestamp;P1;durP1;ratioP1;P2;durP2;ratioP2
20110;SDS011;10216;42.658;23.248;2022-09-01T00:00:59;15.20;;;13.77;;
20110;SDS011;10216;42.658;23.248;2022-09-01T00:03:24;15.87;;;14.50;;
20110;SDS011;10216;42.658;23.248;2022-09-01T00:05:50;16.30;;;14.80;;
20110;SDS011;10216;42.658;23.248;2022-09-01T00:08:19;15.80;;;14.33;;
20110;SDS011;10216;42.658;23.248;2022-09-01T00:10:45;14.93;;;13.53;;
20110;SDS011;10216;42.658;23.248;2022-09-01T00:13:11;15.13;;;13.50;;
20110;SDS011;10216;42.658;23.248;2022-09-01T00:15:37;15.93;;;14.23;;
20110;SDS011;10216;42.658;23.248;2022-09-01T00:18:03;15.67;;;14.10;;
20110;SDS011;10216;42.658;23.248;2022-09-01T00:20:28;16.87;;;14.97;;
20110;SDS011;10216;42.658;23.248;2022-09-01T00:22:54;15.70;;;14.10;;
20110;SDS011;10216;42.658;23.248;2022-09-01T00:25:19;15.47;;;13.87;;
20110;SDS011;10216;42.658;23.248;2022-09-01T00:27:46;16.50;;;14.87;;
20110;SDS011;10216;42.658;23.248;2022-09-01T00:30:13;17.07;;;15.37;;
20110;SDS011;10216;42.658;23.248;2022-09-01T00:32:38;16.53;;;14.77;;
20110;SDS011;10216;42.658;23.248;2022-09-01T00:35:04;17.07;;;14.93;;
20110;SDS011;10216;42.658;23.248;2022-09-01T00:37:30;16.57;;;14.90;;
20110;SDS011;10216;42.658;23.248;2022-09-01T00:39:56;16.07;;;14.63;;
20110;SDS011;10216;42.658;23.248;2022-09-01T00:42:21;16.60;;;14.97;;
20110;SDS011;10216;42.658;23.248;2022-09-01T00:44:47;18.67;;;15.67;;
20110;SDS011;10216;42.658;23.248;2022-09-01T00:47:13;17.07;;;15.27;;
20110;SDS011;10216;42.658;23.248;2022-09-01T00:49:40;16.77;;;15.07;;
20110;SDS011;10216;42.658;23.248;2022-09-01T00:52:31;16.40;;;14.70;;
20110;SDS011;10216;42.658;23.248;2022-09-01T00:55:01;17.10;;;15.20;;
20110;SDS011;10216;42.658;23.248;2022-09-01T00:57:33;17.37;;;15.77;;
20110;SDS011;10216;42.658;23.248;2022-09-01T01:00:02;17.17;;;15.57;;
20110;SDS011;10216;42.658;23.248;2022-09-01T01:02:38;17.13;;;15.47;;
20110;SDS011;10216;42.658;23.248;2022-09-01T01:05:06;17.13;;;15.67;;
20110;SDS011;10216;42.658;23.248;2022-09-01T01:07:32;17.00;;;15.47;;
20110;SDS011;10216;42.658;23.248;2022-09-01T01:10:03;19.03;;;17.03;;
20110;SDS011;10216;42.658;23.248;2022-09-01T01:12:30;17.43;;;15.63;;
20110;SDS011;10216;42.658;23.248;2022-09-01T01:14:57;17.70;;;15.87;;
20110;SDS011;10216;42.658;23.248;2022-09-01T01:17:22;17.03;;;15.53;;
20110;SDS011;10216;42.658;23.248;2022-09-01T01:19:52;17.47;;;15.77;;
20110;SDS011;10216;42.658;23.248;2022-09-01T01:28:03;17.37;;;15.70;;
20110;SDS011;10216;42.658;23.248;2022-09-01T01:30:31;18.33;;;16.53;;
20110;SDS011;10216;42.658;23.248;2022-09-01T01:33:01;17.90;;;16.20;;
20110;SDS011;10216;42.658;23.248;2022-09-01T01:35:28;18.90;;;16.77;;
20110;SDS011;10216;42.658;23.248;2022-09-01T01:37:55;18.83;;;16.90;;
20110;SDS011;10216;42.658;23.248;2022-09-01T01:40:21;19.00;;;17.10;;
20110;SDS011;10216;42.658;23.248;2022-09-01T01:42:51;19.47;;;17.27;;
20110;SDS011;10216;42.658;23.248;2022-09-01T01:45:18;19.80;;;18.00;;
20110;SDS011;10216;42.658;23.248;2022-09-01T01:47:47;20.07;;;18.07;;
20110;SDS011;10216;42.658;23.248;2022-09-01T01:50:27;19.47;;;17.57;;
20110;SDS011;10216;42.658;23.248;2022-09-01T01:52:59;20.13;;;17.53;;
20110;SDS011;10216;42.658;23.248;2022-09-01T01:55:27;20.57;;;18.50;;
20110;SDS011;10216;42.658;23.248;2022-09-01T01:57:55;19.83;;;17.83;;
20110;SDS011;10216;42.658;23.248;2022-09-01T02:00:22;19.10;;;17.33;;
20110;SDS011;10216;42.658;23.248;2022-09-01T02:02:51;20.70;;;18.53;;
20110;SDS011;10216;42.658;23.248;2022-09-01T02:05:21;20.70;;;18.70;;
20110;SDS011;10216;42.658;23.248;2022-09-01T02:07:50;21.23;;;19.17;;
20110;SDS011;10216;42.658;23.248;2022-09-01T02:10:20;20.23;;;18.20;;
20110;SDS011;10216;42.658;23.248;2022-09-01T02:12:50;20.83;;;18.80;;
20110;SDS011;10216;42.658;23.248;2022-09-01T02:15:16;21.63;;;19.63;;
20110;SDS011;10216;42.658;23.248;2022-09-01T02:17:42;21.63;;;19.43;;
20110;SDS011;10216;42.658;23.248;2022-09-01T02:20:10;20.60;;;18.60;;
20110;SDS011;10216;42.658;23.248;2022-09-01T02:22:35;23.53;;;19.30;;
20110;SDS011;10216;42.658;23.248;2022-09-01T02:25:04;22.50;;;20.20;;
20110;SDS011;10216;42.658;23.248;2022-09-01T02:27:31;21.87;;;19.70;;
20110;SDS011;10216;42.658;23.248;2022-09-01T02:29:59;23.07;;;20.80;;
20110;SDS011;10216;42.658;23.248;2022-09-01T02:32:25;21.53;;;19.37;;
20110;SDS011;10216;42.658;23.248;2022-09-01T02:34:51;21.73;;;19.47;;
20110;SDS011;10216;42.658;23.248;2022-09-01T02:37:21;22.57;;;20.37;;
20110;SDS011;10216;42.658;23.248;2022-09-01T02:39:49;21.63;;;19.53;;
20110;SDS011;10216;42.658;23.248;2022-09-01T02:42:20;24.33;;;21.90;;
20110;SDS011;10216;42.658;23.248;2022-09-01T02:44:53;23.30;;;21.03;;
20110;SDS011;10216;42.658;23.248;2022-09-01T02:47:23;24.17;;;21.77;;
20110;SDS011;10216;42.658;23.248;2022-09-01T02:49:51;25.00;;;22.37;;
20110;SDS011;10216;42.658;23.248;2022-09-01T02:52:17;23.30;;;21.00;;
20110;SDS011;10216;42.658;23.248;2022-09-01T02:54:45;23.10;;;20.97;;
20110;SDS011;10216;42.658;23.248;2022-09-01T02:57:13;24.80;;;22.30;;
20110;SDS011;10216;42.658;23.248;2022-09-01T02:59:38;23.73;;;21.37;;
20110;SDS011;10216;42.658;23.248;2022-09-01T03:02:06;23.03;;;20.83;;
20110;SDS011;10216;42.658;23.248;2022-09-01T03:04:32;22.83;;;20.53;;
20110;SDS011;10216;42.658;23.248;2022-09-01T03:06:59;22.50;;;20.20;;
20110;SDS011;10216;42.658;23.248;2022-09-01T03:09:25;23.30;;;20.70;;
20110;SDS011;10216;42.658;23.248;2022-09-01T03:11:52;22.10;;;19.67;;
20110;SDS011;10216;42.658;23.248;2022-09-01T03:14:19;20.30;;;18.23;;
20110;SDS011;10216;42.658;23.248;2022-09-01T03:16:45;21.83;;;19.63;;
20110;SDS011;10216;42.658;23.248;2022-09-01T03:19:11;24.03;;;21.60;;
20110;SDS011;10216;42.658;23.248;2022-09-01T03:21:37;20.80;;;18.83;;
20110;SDS011;10216;42.658;23.248;2022-09-01T03:24:05;25.43;;;21.17;;
20110;SDS011;10216;42.658;23.248;2022-09-01T03:26:33;23.83;;;21.30;;
20110;SDS011;10216;42.658;23.248;2022-09-01T03:28:59;24.87;;;22.27;;
20110;SDS011;10216;42.658;23.248;2022-09-01T03:31:24;24.47;;;22.17;;
20110;SDS011;10216;42.658;23.248;2022-09-01T03:33:56;25.27;;;22.70;;
20110;SDS011;10216;42.658;23.248;2022-09-01T03:36:22;25.07;;;22.43;;
20110;SDS011;10216;42.658;23.248;2022-09-01T03:38:49;23.70;;;21.20;;
20110;SDS011;10216;42.658;23.248;2022-09-01T03:41:17;24.40;;;22.03;;
20110;SDS011;10216;42.658;23.248;2022-09-01T03:43:45;24.63;;;22.13;;
20110;SDS011;10216;42.658;23.248;2022-09-01T03:46:11;24.13;;;21.87;;
20110;SDS011;10216;42.658;23.248;2022-09-01T03:48:44;24.10;;;21.70;;
20110;SDS011;10216;42.658;23.248;2022-09-01T03:51:11;24.60;;;20.87;;
20110;SDS011;10216;42.658;23.248;2022-09-01T03:53:38;22.30;;;20.10;;
20110;SDS011;10216;42.658;23.248;2022-09-01T03:56:04;23.07;;;20.70;;
20110;SDS011;10216;42.658;23.248;2022-09-01T03:58:31;21.30;;;19.40;;
20110;SDS011;10216;42.658;23.248;2022-09-01T04:00:57;21.60;;;19.40;;
20110;SDS011;10216;42.658;23.248;2022-09-01T04:03:27;24.60;;;19.50;;
20110;SDS011;10216;42.658;23.248;2022-09-01T04:05:56;21.67;;;19.47;;
20110;SDS011;10216;42.658;23.248;2022-09-01T04:08:23;20.77;;;18.77;;
20110;SDS011;10216;42.658;23.248;2022-09-01T04:10:55;20.60;;;18.43;;
20110;SDS011;10216;42.658;23.248;2022-09-01T04:13:29;20.63;;;18.43;;
20110;SDS011;10216;42.658;23.248;2022-09-01T04:15:58;20.43;;;18.40;;
20110;SDS011;10216;42.658;23.248;2022-09-01T04:18:24;21.10;;;19.00;;
20110;SDS011;10216;42.658;23.248;2022-09-01T04:20:51;26.53;;;20.43;;
20110;SDS011;10216;42.658;23.248;2022-09-01T04:23:27;21.90;;;19.60;;
20110;SDS011;10216;42.658;23.248;2022-09-01T04:28:44;23.73;;;21.30;;
20110;SDS011;10216;42.658;23.248;2022-09-01T04:31:21;24.10;;;21.33;;
20110;SDS011;10216;42.658;23.248;2022-09-01T04:33:48;22.90;;;20.50;;
20110;SDS011;10216;42.658;23.248;2022-09-01T04:36:23;22.70;;;20.43;;
20110;SDS011;10216;42.658;23.248;2022-09-01T04:38:55;25.37;;;21.13;;
20110;SDS011;10216;42.658;23.248;2022-09-01T04:41:29;23.10;;;20.83;;
20110;SDS011;10216;42.658;23.248;2022-09-01T04:43:57;23.23;;;20.87;;
20110;SDS011;10216;42.658;23.248;2022-09-01T04:46:27;23.63;;;21.33;;
20110;SDS011;10216;42.658;23.248;2022-09-01T04:48:55;24.10;;;21.67;;
20110;SDS011;10216;42.658;23.248;2022-09-01T04:51:22;25.00;;;22.03;;
20110;SDS011;10216;42.658;23.248;2022-09-01T04:53:52;24.77;;;22.23;;
20110;SDS011;10216;42.658;23.248;2022-09-01T04:56:21;25.87;;;23.20;;
20110;SDS011;10216;42.658;23.248;2022-09-01T04:58:49;27.10;;;24.30;;
20110;SDS011;10216;42.658;23.248;2022-09-01T05:01:16;27.60;;;24.70;;
20110;SDS011;10216;42.658;23.248;2022-09-01T05:03:47;27.30;;;24.37;;
20110;SDS011;10216;42.658;23.248;2022-09-01T05:06:20;28.60;;;25.63;;
20110;SDS011;10216;42.658;23.248;2022-09-01T05:08:46;28.90;;;25.77;;
20110;SDS011;10216;42.658;23.248;2022-09-01T05:11:14;30.67;;;27.37;;
20110;SDS011;10216;42.658;23.248;2022-09-01T05:13:43;29.63;;;26.63;;
20110;SDS011;10216;42.658;23.248;2022-09-01T05:16:10;30.67;;;26.57;;
20110;SDS011;10216;42.658;23.248;2022-09-01T05:18:40;30.53;;;27.33;;
20110;SDS011;10216;42.658;23.248;2022-09-01T05:21:11;31.23;;;27.77;;
20110;SDS011;10216;42.658;23.248;2022-09-01T05:23:40;33.43;;;27.90;;
20110;SDS011;10216;42.658;23.248;2022-09-01T05:26:13;31.67;;;28.33;;
20110;SDS011;10216;42.658;23.248;2022-09-01T05:28:42;30.20;;;27.17;;
20110;SDS011;10216;42.658;23.248;2022-09-01T05:31:08;29.97;;;26.97;;
20110;SDS011;10216;42.658;23.248;2022-09-01T05:33:34;33.80;;;30.20;;
20110;SDS011;10216;42.658;23.248;2022-09-01T05:36:01;32.10;;;28.53;;
20110;SDS011;10216;42.658;23.248;2022-09-01T05:38:32;32.17;;;28.73;;
20110;SDS011;10216;42.658;23.248;2022-09-01T05:41:02;32.20;;;27.27;;
20110;SDS011;10216;42.658;23.248;2022-09-01T05:43:31;34.17;;;30.13;;
20110;SDS011;10216;42.658;23.248;2022-09-01T05:45:57;34.30;;;30.47;;
20110;SDS011;10216;42.658;23.248;2022-09-01T05:48:25;33.03;;;29.60;;
20110;SDS011;10216;42.658;23.248;2022-09-01T05:50:51;35.20;;;31.50;;
20110;SDS011;10216;42.658;23.248;2022-09-01T05:53:22;34.17;;;30.80;;
20110;SDS011;10216;42.658;23.248;2022-09-01T05:55:49;31.30;;;28.07;;
20110;SDS011;10216;42.658;23.248;2022-09-01T05:58:21;33.60;;;28.00;;
20110;SDS011;10216;42.658;23.248;2022-09-01T06:00:49;30.60;;;27.47;;
20110;SDS011;10216;42.658;23.248;2022-09-01T06:03:16;31.17;;;27.87;;
20110;SDS011;10216;42.658;23.248;2022-09-01T06:05:41;31.73;;;28.23;;
20110;SDS011;10216;42.658;23.248;2022-09-01T06:08:12;29.13;;;26.33;;
20110;SDS011;10216;42.658;23.248;2022-09-01T06:10:39;31.00;;;27.67;;
20110;SDS011;10216;42.658;23.248;2022-09-01T06:13:08;28.50;;;25.53;;
20110;SDS011;10216;42.658;23.248;2022-09-01T06:15:34;30.07;;;26.77;;
20110;SDS011;10216;42.658;23.248;2022-09-01T06:18:03;30.90;;;27.50;;
20110;SDS011;10216;42.658;23.248;2022-09-01T06:20:37;30.90;;;27.43;;
20110;SDS011;10216;42.658;23.248;2022-09-01T06:23:04;28.87;;;26.07;;
20110;SDS011;10216;42.658;23.248;2022-09-01T06:25:30;33.60;;;25.93;;
20110;SDS011;10216;42.658;23.248;2022-09-01T06:27:56;30.93;;;27.30;;
20110;SDS011;10216;42.658;23.248;2022-09-01T06:30:22;32.80;;;27.07;;
20110;SDS011;10216;42.658;23.248;2022-09-01T06:32:51;30.63;;;27.20;;
20110;SDS011;10216;42.658;23.248;2022-09-01T06:35:18;32.03;;;28.50;;
20110;SDS011;10216;42.658;23.248;2022-09-01T06:37:45;29.50;;;26.40;;
20110;SDS011;10216;42.658;23.248;2022-09-01T06:40:12;31.03;;;26.83;;
20110;SDS011;10216;42.658;23.248;2022-09-01T06:42:46;30.93;;;27.50;;
20110;SDS011;10216;42.658;23.248;2022-09-01T06:45:13;32.07;;;26.30;;
20110;SDS011;10216;42.658;23.248;2022-09-01T06:47:41;30.83;;;27.17;;
20110;SDS011;10216;42.658;23.248;2022-09-01T06:50:12;31.53;;;26.20;;
20110;SDS011;10216;42.658;23.248;2022-09-01T06:52:42;30.20;;;27.10;;
20110;SDS011;10216;42.658;23.248;2022-09-01T06:55:12;32.97;;;27.17;;
20110;SDS011;10216;42.658;23.248;2022-09-01T06:57:39;29.47;;;26.40;;
20110;SDS011;10216;42.658;23.248;2022-09-01T07:00:07;29.50;;;26.37;;
20110;SDS011;10216;42.658;23.248;2022-09-01T07:02:45;31.57;;;28.17;;
20110;SDS011;10216;42.658;23.248;2022-09-01T07:05:15;32.17;;;28.67;;
20110;SDS011;10216;42.658;23.248;2022-09-01T07:07:52;30.17;;;27.10;;
20110;SDS011;10216;42.658;23.248;2022-09-01T07:10:22;31.00;;;27.93;;
20110;SDS011;10216;42.658;23.248;2022-09-01T07:12:50;32.30;;;28.77;;
20110;SDS011;10216;42.658;23.248;2022-09-01T07:15:17;32.10;;;28.87;;
20110;SDS011;10216;42.658;23.248;2022-09-01T07:17:47;31.80;;;28.37;;
20110;SDS011;10216;42.658;23.248;2022-09-01T07:20:16;33.17;;;29.47;;
20110;SDS011;10216;42.658;23.248;2022-09-01T07:22:43;29.27;;;26.43;;
20110;SDS011;10216;42.658;23.248;2022-09-01T07:25:08;35.23;;;26.13;;
20110;SDS011;10216;42.658;23.248;2022-09-01T07:27:37;32.73;;;28.13;;
20110;SDS011;10216;42.658;23.248;2022-09-01T07:30:05;31.73;;;28.37;;
20110;SDS011;10216;42.658;23.248;2022-09-01T07:32:34;31.87;;;28.60;;
20110;SDS011;10216;42.658;23.248;2022-09-01T07:35:01;30.87;;;27.73;;
20110;SDS011;10216;42.658;23.248;2022-09-01T07:37:30;32.30;;;27.07;;
20110;SDS011;10216;42.658;23.248;2022-09-01T07:39:56;31.23;;;27.73;;
20110;SDS011;10216;42.658;23.248;2022-09-01T07:42:22;29.43;;;26.47;;
20110;SDS011;10216;42.658;23.248;2022-09-01T07:44:48;32.53;;;29.03;;
20110;SDS011;10216;42.658;23.248;2022-09-01T07:47:14;29.63;;;26.53;;
20110;SDS011;10216;42.658;23.248;2022-09-01T07:49:41;30.07;;;27.07;;
20110;SDS011;10216;42.658;23.248;2022-09-01T07:52:07;28.30;;;25.30;;
20110;SDS011;10216;42.658;23.248;2022-09-01T07:54:32;31.17;;;27.63;;
20110;SDS011;10216;42.658;23.248;2022-09-01T07:57:01;28.80;;;24.70;;
20110;SDS011;10216;42.658;23.248;2022-09-01T07:59:27;28.57;;;25.50;;
20110;SDS011;10216;42.658;23.248;2022-09-01T08:01:55;27.90;;;24.80;;
20110;SDS011;10216;42.658;23.248;2022-09-01T08:04:21;30.73;;;26.80;;
20110;SDS011;10216;42.658;23.248;2022-09-01T08:06:47;30.97;;;27.57;;
20110;SDS011;10216;42.658;23.248;2022-09-01T08:09:12;27.93;;;25.07;;
20110;SDS011;10216;42.658;23.248;2022-09-01T08:11:38;27.60;;;24.90;;
20110;SDS011;10216;42.658;23.248;2022-09-01T08:14:04;30.37;;;24.87;;
20110;SDS011;10216;42.658;23.248;2022-09-01T08:16:30;27.50;;;24.53;;
20110;SDS011;10216;42.658;23.248;2022-09-01T08:18:56;28.57;;;25.10;;
20110;SDS011;10216;42.658;23.248;2022-09-01T08:21:22;28.13;;;25.33;;
20110;SDS011;10216;42.658;23.248;2022-09-01T08:23:49;28.95;;;25.60;;
20110;SDS011;10216;42.658;23.248;2022-09-01T08:26:17;28.87;;;25.80;;
20110;SDS011;10216;42.658;23.248;2022-09-01T08:28:44;27.60;;;23.48;;
20110;SDS011;10216;42.658;23.248;2022-09-01T08:31:11;28.65;;;25.85;;
20110;SDS011;10216;42.658;23.248;2022-09-01T08:33:38;26.55;;;23.15;;
20110;SDS011;10216;42.658;23.248;2022-09-01T08:36:09;28.95;;;26.00;;
20110;SDS011;10216;42.658;23.248;2022-09-01T08:38:35;28.20;;;23.63;;
20110;SDS011;10216;42.658;23.248;2022-09-01T08:41:01;26.13;;;23.50;;
20110;SDS011;10216;42.658;23.248;2022-09-01T08:46:13;25.10;;;22.35;;
20110;SDS011;10216;42.658;23.248;2022-09-01T08:48:48;24.92;;;22.35;;
20110;SDS011;10216;42.658;23.248;2022-09-01T08:56:55;22.08;;;19.80;;
20110;SDS011;10216;42.658;23.248;2022-09-01T08:59:24;22.05;;;19.45;;
20110;SDS011;10216;42.658;23.248;2022-09-01T09:07:12;19.10;;;15.75;;
20110;SDS011;10216;42.658;23.248;2022-09-01T09:15:24;18.75;;;16.52;;
20110;SDS011;10216;42.658;23.248;2022-09-01T09:18:03;18.20;;;15.13;;
20110;SDS011;10216;42.658;23.248;2022-09-01T09:20:37;18.33;;;16.50;;
20110;SDS011;10216;42.658;23.248;2022-09-01T09:23:06;18.13;;;16.23;;
20110;SDS011;10216;42.658;23.248;2022-09-01T09:25:48;18.00;;;15.93;;
20110;SDS011;10216;42.658;23.248;2022-09-01T09:28:14;16.70;;;14.93;;
20110;SDS011;10216;42.658;23.248;2022-09-01T09:30:40;15.60;;;13.90;;
20110;SDS011;10216;42.658;23.248;2022-09-01T09:33:06;15.63;;;14.18;;
20110;SDS011;10216;42.658;23.248;2022-09-01T09:35:41;17.05;;;15.35;;
20110;SDS011;10216;42.658;23.248;2022-09-01T09:43:23;14.68;;;12.98;;
20110;SDS011;10216;42.658;23.248;2022-09-01T09:45:48;13.70;;;12.40;;
20110;SDS011;10216;42.658;23.248;2022-09-01T09:48:28;15.50;;;12.98;;
20110;SDS011;10216;42.658;23.248;2022-09-01T09:50:55;12.93;;;11.43;;
20110;SDS011;10216;42.658;23.248;2022-09-01T09:53:40;10.50;;;9.50;;
20110;SDS011;10216;42.658;23.248;2022-09-01T09:56:15;11.13;;;10.00;;
20110;SDS011;10216;42.658;23.248;2022-09-01T09:58:42;11.10;;;9.15;;
20110;SDS011;10216;42.658;23.248;2022-09-01T10:03:48;14.40;;;11.23;;
20110;SDS011;10216;42.658;23.248;2022-09-01T10:09:03;13.00;;;10.90;;
20110;SDS011;10216;42.658;23.248;2022-09-01T10:14:04;12.15;;;10.95;;
20110;SDS011;10216;42.658;23.248;2022-09-01T10:16:33;12.95;;;11.73;;
20110;SDS011;10216;42.658;23.248;2022-09-01T10:19:03;18.08;;;13.68;;
20110;SDS011;10216;42.658;23.248;2022-09-01T10:21:40;15.75;;;14.20;;
20110;SDS011;10216;42.658;23.248;2022-09-01T10:24:17;13.30;;;11.90;;
20110;SDS011;10216;42.658;23.248;2022-09-01T10:26:52;13.15;;;11.27;;
20110;SDS011;10216;42.658;23.248;2022-09-01T10:29:23;13.73;;;12.35;;
20110;SDS011;10216;42.658;23.248;2022-09-01T10:31:54;12.38;;;11.07;;
20110;SDS011;10216;42.658;23.248;2022-09-01T10:34:20;13.82;;;12.43;;
20110;SDS011;10216;42.658;23.248;2022-09-01T10:36:48;13.38;;;11.55;;
20110;SDS011;10216;42.658;23.248;2022-09-01T10:39:16;12.18;;;11.02;;
20110;SDS011;10216;42.658;23.248;2022-09-01T10:41:47;12.27;;;10.82;;
20110;SDS011;10216;42.658;23.248;2022-09-01T10:47:33;12.32;;;10.27;;
20110;SDS011;10216;42.658;23.248;2022-09-01T10:50:21;13.23;;;10.10;;
20110;SDS011;10216;42.658;23.248;2022-09-01T10:55:58;12.85;;;11.55;;
20110;SDS011;10216;42.658;23.248;2022-09-01T10:58:14;13.18;;;11.50;;
20110;SDS011;10216;42.658;23.248;2022-09-01T11:00:44;12.35;;;11.13;;
20110;SDS011;10216;42.658;23.248;2022-09-01T11:03:31;14.80;;;11.55;;
20110;SDS011;10216;42.658;23.248;2022-09-01T11:06:00;13.25;;;11.60;;
20110;SDS011;10216;42.658;23.248;2022-09-01T11:11:06;12.40;;;11.20;;
20110;SDS011;10216;42.658;23.248;2022-09-01T11:13:35;12.48;;;11.23;;
20110;SDS011;10216;42.658;23.248;2022-09-01T11:18:51;16.25;;;11.73;;
20110;SDS011;10216;42.658;23.248;2022-09-01T11:21:24;11.68;;;10.50;;
20110;SDS011;10216;42.658;23.248;2022-09-01T11:27:04;11.00;;;9.88;;
20110;SDS011;10216;42.658;23.248;2022-09-01T11:32:17;10.23;;;9.23;;
20110;SDS011;10216;42.658;23.248;2022-09-01T11:34:43;10.40;;;9.05;;
20110;SDS011;10216;42.658;23.248;2022-09-01T11:37:15;10.25;;;9.32;;
20110;SDS011;10216;42.658;23.248;2022-09-01T11:39:50;10.82;;;9.05;;
20110;SDS011;10216;42.658;23.248;2022-09-01T11:42:20;10.60;;;9.32;;
20110;SDS011;10216;42.658;23.248;2022-09-01T11:44:55;10.68;;;8.48;;
20110;SDS011;10216;42.658;23.248;2022-09-01T11:47:35;11.35;;;8.55;;
20110;SDS011;10216;42.658;23.248;2022-09-01T11:50:07;10.40;;;7.80;;
20110;SDS011;10216;42.658;23.248;2022-09-01T11:55:37;8.85;;;7.95;;
20110;SDS011;10216;42.658;23.248;2022-09-01T11:58:05;8.85;;;7.85;;
20110;SDS011;10216;42.658;23.248;2022-09-01T12:00:55;8.93;;;8.13;;
20110;SDS011;10216;42.658;23.248;2022-09-01T12:03:38;14.38;;;7.85;;
20110;SDS011;10216;42.658;23.248;2022-09-01T12:06:05;8.30;;;7.50;;
20110;SDS011;10216;42.658;23.248;2022-09-01T12:08:35;8.50;;;7.70;;
20110;SDS011;10216;42.658;23.248;2022-09-01T12:13:36;10.00;;;7.57;;
20110;SDS011;10216;42.658;23.248;2022-09-01T12:16:05;7.78;;;7.07;;
20110;SDS011;10216;42.658;23.248;2022-09-01T12:18:33;8.60;;;7.70;;
20110;SDS011;10216;42.658;23.248;2022-09-01T12:21:05;9.65;;;8.50;;
20110;SDS011;10216;42.658;23.248;2022-09-01T12:23:35;8.55;;;7.53;;
20110;SDS011;10216;42.658;23.248;2022-09-01T12:26:05;8.75;;;7.82;;
20110;SDS011;10216;42.658;23.248;2022-09-01T12:28:33;9.02;;;7.95;;
20110;SDS011;10216;42.658;23.248;2022-09-01T12:31:00;9.55;;;7.95;;
20110;SDS011;10216;42.658;23.248;2022-09-01T12:33:30;9.77;;;8.65;;
20110;SDS011;10216;42.658;23.248;2022-09-01T12:36:12;11.55;;;8.15;;
20110;SDS011;10216;42.658;23.248;2022-09-01T12:38:40;9.35;;;8.45;;
20110;SDS011;10216;42.658;23.248;2022-09-01T12:43:55;9.93;;;9.02;;
20110;SDS011;10216;42.658;23.248;2022-09-01T12:46:43;9.80;;;8.90;;
20110;SDS011;10216;42.658;23.248;2022-09-01T12:49:21;11.27;;;9.43;;
20110;SDS011;10216;42.658;23.248;2022-09-01T12:51:49;11.43;;;9.40;;
20110;SDS011;10216;42.658;23.248;2022-09-01T12:54:29;16.73;;;10.15;;
20110;SDS011;10216;42.658;23.248;2022-09-01T12:56:57;10.80;;;9.75;;
20110;SDS011;10216;42.658;23.248;2022-09-01T12:59:23;14.77;;;10.68;;
20110;SDS011;10216;42.658;23.248;2022-09-01T13:01:50;11.85;;;9.38;;
20110;SDS011;10216;42.658;23.248;2022-09-01T13:06:53;10.38;;;9.38;;
20110;SDS011;10216;42.658;23.248;2022-09-01T13:09:19;13.02;;;10.48;;
20110;SDS011;10216;42.658;23.248;2022-09-01T13:11:45;9.70;;;8.70;;
20110;SDS011;10216;42.658;23.248;2022-09-01T13:14:11;10.82;;;8.48;;
20110;SDS011;10216;42.658;23.248;2022-09-01T13:16:37;12.98;;;9.35;;
20110;SDS011;10216;42.658;23.248;2022-09-01T13:19:03;9.85;;;8.93;;
20110;SDS011;10216;42.658;23.248;2022-09-01T13:21:31;10.43;;;9.40;;
20110;SDS011;10216;42.658;23.248;2022-09-01T13:23:59;10.65;;;8.65;;
20110;SDS011;10216;42.658;23.248;2022-09-01T13:26:29;10.70;;;9.43;;
20110;SDS011;10216;42.658;23.248;2022-09-01T13:28:55;11.23;;;10.23;;
20110;SDS011;10216;42.658;23.248;2022-09-01T13:31:21;10.63;;;9.73;;
20110;SDS011;10216;42.658;23.248;2022-09-01T13:33:47;13.70;;;9.60;;
20110;SDS011;10216;42.658;23.248;2022-09-01T13:36:13;10.30;;;9.25;;
20110;SDS011;10216;42.658;23.248;2022-09-01T13:38:39;10.52;;;9.52;;
20110;SDS011;10216;42.658;23.248;2022-09-01T13:41:05;19.58;;;9.77;;
20110;SDS011;10216;42.658;23.248;2022-09-01T13:43:30;11.32;;;9.13;;
20110;SDS011;10216;42.658;23.248;2022-09-01T13:45:57;10.70;;;9.35;;
20110;SDS011;10216;42.658;23.248;2022-09-01T13:48:23;12.57;;;9.75;;
20110;SDS011;10216;42.658;23.248;2022-09-01T13:50:49;16.38;;;9.93;;
20110;SDS011;10216;42.658;23.248;2022-09-01T13:53:18;13.25;;;10.20;;
20110;SDS011;10216;42.658;23.248;2022-09-01T13:55:45;12.10;;;10.07;;
20110;SDS011;10216;42.658;23.248;2022-09-01T13:58:11;14.00;;;11.15;;
20110;SDS011;10216;42.658;23.248;2022-09-01T14:00:40;13.23;;;10.20;;
20110;SDS011;10216;42.658;23.248;2022-09-01T14:03:14;11.40;;;10.30;;
20110;SDS011;10216;42.658;23.248;2022-09-01T14:05:42;11.93;;;10.68;;
20110;SDS011;10216;42.658;23.248;2022-09-01T14:08:10;15.07;;;10.82;;
20110;SDS011;10216;42.658;23.248;2022-09-01T14:10:40;12.23;;;10.80;;
20110;SDS011;10216;42.658;23.248;2022-09-01T14:13:08;12.65;;;9.85;;
20110;SDS011;10216;42.658;23.248;2022-09-01T14:15:35;11.48;;;10.30;;
20110;SDS011;10216;42.658;23.248;2022-09-01T14:18:01;11.90;;;10.77;;
20110;SDS011;10216;42.658;23.248;2022-09-01T14:20:29;11.43;;;10.18;;
20110;SDS011;10216;42.658;23.248;2022-09-01T14:23:00;11.48;;;10.27;;
20110;SDS011;10216;42.658;23.248;2022-09-01T14:25:27;12.38;;;11.07;;
20110;SDS011;10216;42.658;23.248;2022-09-01T14:27:53;11.52;;;10.35;;
20110;SDS011;10216;42.658;23.248;2022-09-01T14:30:21;12.35;;;10.90;;
20110;SDS011;10216;42.658;23.248;2022-09-01T14:32:49;13.20;;;10.07;;
20110;SDS011;10216;42.658;23.248;2022-09-01T14:35:16;13.25;;;10.73;;
20110;SDS011;10216;42.658;23.248;2022-09-01T14:37:44;12.15;;;10.93;;
20110;SDS011;10216;42.658;23.248;2022-09-01T14:40:11;14.30;;;12.38;;
20110;SDS011;10216;42.658;23.248;2022-09-01T14:42:39;17.88;;;11.98;;
20110;SDS011;10216;42.658;23.248;2022-09-01T14:45:10;11.85;;;10.75;;
20110;SDS011;10216;42.658;23.248;2022-09-01T14:47:37;12.70;;;11.50;;
20110;SDS011;10216;42.658;23.248;2022-09-01T14:50:03;12.48;;;11.27;;
20110;SDS011;10216;42.658;23.248;2022-09-01T14:52:29;13.45;;;11.40;;
20110;SDS011;10216;42.658;23.248;2022-09-01T14:54:54;13.05;;;11.68;;
20110;SDS011;10216;42.658;23.248;2022-09-01T14:57:20;12.57;;;11.38;;
20110;SDS011;10216;42.658;23.248;2022-09-01T14:59:45;12.50;;;11.27;;
20110;SDS011;10216;42.658;23.248;2022-09-01T15:02:10;12.10;;;10.90;;
20110;SDS011;10216;42.658;23.248;2022-09-01T15:04:36;13.23;;;10.95;;
20110;SDS011;10216;42.658;23.248;2022-09-01T15:07:01;12.93;;;11.65;;
20110;SDS011;10216;42.658;23.248;2022-09-01T15:09:30;14.05;;;10.50;;
20110;SDS011;10216;42.658;23.248;2022-09-01T15:11:57;13.05;;;11.40;;
20110;SDS011;10216;42.658;23.248;2022-09-01T15:14:22;12.20;;;11.00;;
20110;SDS011;10216;42.658;23.248;2022-09-01T15:16:50;12.02;;;10.73;;
20110;SDS011;10216;42.658;23.248;2022-09-01T15:19:16;12.20;;;10.90;;
20110;SDS011;10216;42.658;23.248;2022-09-01T15:21:42;11.63;;;10.43;;
20110;SDS011;10216;42.658;23.248;2022-09-01T15:24:09;11.35;;;10.35;;
20110;SDS011;10216;42.658;23.248;2022-09-01T15:26:35;11.38;;;10.38;;
20110;SDS011;10216;42.658;23.248;2022-09-01T15:29:02;10.63;;;9.63;;